sensor_id;sensor_type;location;lat;lon;timestamp;temperature;humidity
17994;DHT22;9122;48.406;9.984;2023-05-14T00:00:35;13.00;98.60
17994;DHT22;9122;48.406;9.984;2023-05-14T00:03:19;13.00;98.60
17994;DHT22;9122;48.406;9.984;2023-05-14T00:06:04;12.90;98.60
17994;DHT22;9122;48.406;9.984;2023-05-14T00:08:48;12.90;98.70
17994;DHT22;9122;48.406;9.984;2023-05-14T00:11:32;12.90;98.70
17994;DHT22;9122;48.406;9.984;2023-05-14T00:14:17;12.90;98.80
17994;DHT22;9122;48.406;9.984;2023-05-14T00:17:01;12.90;98.80
17994;DHT22;9122;48.406;9.984;2023-05-14T00:19:46;12.80;98.80
17994;DHT22;9122;48.406;9.984;2023-05-14T00:22:30;12.80;98.90
17994;DHT22;9122;48.406;9.984;2023-05-14T00:25:14;12.80;98.90
17994;DHT22;9122;48.406;9.984;2023-05-14T00:27:59;12.80;98.90
17994;DHT22;9122;48.406;9.984;2023-05-14T00:30:43;12.80;99.00
17994;DHT22;9122;48.406;9.984;2023-05-14T00:33:28;12.80;99.00
17994;DHT22;9122;48.406;9.984;2023-05-14T00:36:13;12.70;99.00
17994;DHT22;9122;48.406;9.984;2023-05-14T00:38:57;12.70;99.10
17994;DHT22;9122;48.406;9.984;2023-05-14T00:41:42;12.70;99.10
17994;DHT22;9122;48.406;9.984;2023-05-14T00:44:26;12.70;99.50
17994;DHT22;9122;48.406;9.984;2023-05-14T00:47:11;12.70;99.20
17994;DHT22;9122;48.406;9.984;2023-05-14T00:49:56;12.60;99.20
17994;DHT22;9122;48.406;9.984;2023-05-14T00:52:43;12.70;99.20
17994;DHT22;9122;48.406;9.984;2023-05-14T00:55:29;12.70;99.20
17994;DHT22;9122;48.406;9.984;2023-05-14T00:58:13;12.70;99.20
17994;DHT22;9122;48.406;9.984;2023-05-14T01:00:58;12.60;99.20
17994;DHT22;9122;48.406;9.984;2023-05-14T01:03:43;12.60;99.30
17994;DHT22;9122;48.406;9.984;2023-05-14T01:15:55;12.60;99.40
17994;DHT22;9122;48.406;9.984;2023-05-14T01:18:42;12.60;99.50
17994;DHT22;9122;48.406;9.984;2023-05-14T01:21:38;12.60;99.50
17994;DHT22;9122;48.406;9.984;2023-05-14T01:24:24;12.60;99.50
17994;DHT22;9122;48.406;9.984;2023-05-14T01:30:31;12.60;99.50
17994;DHT22;9122;48.406;9.984;2023-05-14T01:33:18;12.60;99.60
17994;DHT22;9122;48.406;9.984;2023-05-14T01:36:04;12.60;99.50
17994;DHT22;9122;48.406;9.984;2023-05-14T01:38:49;12.60;99.60
17994;DHT22;9122;48.406;9.984;2023-05-14T01:41:35;12.60;99.60
17994;DHT22;9122;48.406;9.984;2023-05-14T01:44:20;12.60;99.60
17994;DHT22;9122;48.406;9.984;2023-05-14T01:47:05;12.60;99.60
17994;DHT22;9122;48.406;9.984;2023-05-14T01:49:49;12.60;99.60
17994;DHT22;9122;48.406;9.984;2023-05-14T01:52:34;12.60;99.50
17994;DHT22;9122;48.406;9.984;2023-05-14T01:55:18;12.60;99.50
17994;DHT22;9122;48.406;9.984;2023-05-14T01:58:02;12.60;99.50
17994;DHT22;9122;48.406;9.984;2023-05-14T02:00:48;12.60;99.50
17994;DHT22;9122;48.406;9.984;2023-05-14T02:03:33;12.60;99.50
17994;DHT22;9122;48.406;9.984;2023-05-14T02:06:17;12.60;99.50
17994;DHT22;9122;48.406;9.984;2023-05-14T02:09:02;12.60;99.40
17994;DHT22;9122;48.406;9.984;2023-05-14T02:11:47;12.60;99.40
17994;DHT22;9122;48.406;9.984;2023-05-14T02:14:31;12.60;99.40
17994;DHT22;9122;48.406;9.984;2023-05-14T02:17:15;12.60;99.40
17994;DHT22;9122;48.406;9.984;2023-05-14T02:20:00;12.60;99.40
17994;DHT22;9122;48.406;9.984;2023-05-14T02:22:44;12.60;99.40
17994;DHT22;9122;48.406;9.984;2023-05-14T02:25:29;12.60;99.40
17994;DHT22;9122;48.406;9.984;2023-05-14T02:28:13;12.60;99.50
17994;DHT22;9122;48.406;9.984;2023-05-14T02:30:59;12.50;99.40
17994;DHT22;9122;48.406;9.984;2023-05-14T02:33:44;12.50;99.50
17994;DHT22;9122;48.406;9.984;2023-05-14T02:36:29;12.50;99.50
17994;DHT22;9122;48.406;9.984;2023-05-14T02:39:17;12.50;99.50
17994;DHT22;9122;48.406;9.984;2023-05-14T02:42:02;12.50;99.60
17994;DHT22;9122;48.406;9.984;2023-05-14T02:44:47;12.50;99.60
17994;DHT22;9122;48.406;9.984;2023-05-14T02:47:31;12.50;99.60
17994;DHT22;9122;48.406;9.984;2023-05-14T02:50:16;12.50;99.60
17994;DHT22;9122;48.406;9.984;2023-05-14T02:53:00;12.50;99.70
17994;DHT22;9122;48.406;9.984;2023-05-14T02:55:45;12.50;99.70
17994;DHT22;9122;48.406;9.984;2023-05-14T02:58:29;12.50;99.70
17994;DHT22;9122;48.406;9.984;2023-05-14T03:01:13;12.50;99.80
17994;DHT22;9122;48.406;9.984;2023-05-14T03:03:57;12.50;99.80
17994;DHT22;9122;48.406;9.984;2023-05-14T03:06:45;12.40;99.80
17994;DHT22;9122;48.406;9.984;2023-05-14T03:09:29;12.40;99.70
17994;DHT22;9122;48.406;9.984;2023-05-14T03:12:13;12.40;99.80
17994;DHT22;9122;48.406;9.984;2023-05-14T03:14:58;12.40;99.80
17994;DHT22;9122;48.406;9.984;2023-05-14T03:17:42;12.40;99.80
17994;DHT22;9122;48.406;9.984;2023-05-14T03:20:27;12.40;99.80
17994;DHT22;9122;48.406;9.984;2023-05-14T03:23:12;12.40;99.80
17994;DHT22;9122;48.406;9.984;2023-05-14T03:25:56;12.40;99.80
17994;DHT22;9122;48.406;9.984;2023-05-14T03:28:41;12.40;99.80
17994;DHT22;9122;48.406;9.984;2023-05-14T03:31:25;12.40;99.80
17994;DHT22;9122;48.406;9.984;2023-05-14T03:34:10;12.40;99.80
17994;DHT22;9122;48.406;9.984;2023-05-14T03:36:54;12.40;99.80
17994;DHT22;9122;48.406;9.984;2023-05-14T03:39:39;12.40;99.80
17994;DHT22;9122;48.406;9.984;2023-05-14T03:42:23;12.40;99.80
17994;DHT22;9122;48.406;9.984;2023-05-14T03:45:08;12.40;99.80
17994;DHT22;9122;48.406;9.984;2023-05-14T03:47:53;12.40;99.80
17994;DHT22;9122;48.406;9.984;2023-05-14T03:50:40;12.40;99.80
17994;DHT22;9122;48.406;9.984;2023-05-14T03:53:24;12.40;99.80
17994;DHT22;9122;48.406;9.984;2023-05-14T03:56:08;12.40;99.80
17994;DHT22;9122;48.406;9.984;2023-05-14T03:58:53;12.40;99.80
17994;DHT22;9122;48.406;9.984;2023-05-14T04:01:37;12.40;99.80
17994;DHT22;9122;48.406;9.984;2023-05-14T04:04:21;12.40;99.70
17994;DHT22;9122;48.406;9.984;2023-05-14T04:07:06;12.40;99.80
17994;DHT22;9122;48.406;9.984;2023-05-14T04:09:52;12.40;99.80
17994;DHT22;9122;48.406;9.984;2023-05-14T04:12:36;12.40;99.80
17994;DHT22;9122;48.406;9.984;2023-05-14T04:15:20;12.40;99.80
17994;DHT22;9122;48.406;9.984;2023-05-14T04:18:05;12.40;99.70
17994;DHT22;9122;48.406;9.984;2023-05-14T04:20:49;12.40;99.70
17994;DHT22;9122;48.406;9.984;2023-05-14T04:23:33;12.40;99.80
17994;DHT22;9122;48.406;9.984;2023-05-14T04:26:18;12.40;99.70
17994;DHT22;9122;48.406;9.984;2023-05-14T04:29:02;12.40;99.70
17994;DHT22;9122;48.406;9.984;2023-05-14T04:31:48;12.40;99.80
17994;DHT22;9122;48.406;9.984;2023-05-14T04:34:33;12.40;99.70
17994;DHT22;9122;48.406;9.984;2023-05-14T04:37:17;12.30;99.70
17994;DHT22;9122;48.406;9.984;2023-05-14T04:40:01;12.30;99.60
17994;DHT22;9122;48.406;9.984;2023-05-14T04:42:46;12.30;99.70
17994;DHT22;9122;48.406;9.984;2023-05-14T04:45:31;12.40;99.90
17994;DHT22;9122;48.406;9.984;2023-05-14T04:48:15;12.40;99.60
17994;DHT22;9122;48.406;9.984;2023-05-14T04:51:00;12.40;99.60
17994;DHT22;9122;48.406;9.984;2023-05-14T04:53:45;12.30;99.60
17994;DHT22;9122;48.406;9.984;2023-05-14T04:56:29;12.40;99.60
17994;DHT22;9122;48.406;9.984;2023-05-14T04:59:14;12.30;99.50
17994;DHT22;9122;48.406;9.984;2023-05-14T05:01:59;12.30;99.50
17994;DHT22;9122;48.406;9.984;2023-05-14T05:04:44;12.40;99.40
17994;DHT22;9122;48.406;9.984;2023-05-14T05:07:30;12.30;99.40
17994;DHT22;9122;48.406;9.984;2023-05-14T05:10:14;12.30;99.40
17994;DHT22;9122;48.406;9.984;2023-05-14T05:12:59;12.30;99.30
17994;DHT22;9122;48.406;9.984;2023-05-14T05:15:43;12.40;99.30
17994;DHT22;9122;48.406;9.984;2023-05-14T05:18:29;12.40;99.30
17994;DHT22;9122;48.406;9.984;2023-05-14T05:21:13;12.40;99.30
17994;DHT22;9122;48.406;9.984;2023-05-14T05:23:57;12.40;99.30
17994;DHT22;9122;48.406;9.984;2023-05-14T05:26:42;12.30;99.30
17994;DHT22;9122;48.406;9.984;2023-05-14T05:29:26;12.30;99.30
17994;DHT22;9122;48.406;9.984;2023-05-14T05:32:11;12.40;99.30
17994;DHT22;9122;48.406;9.984;2023-05-14T05:34:55;12.40;99.30
17994;DHT22;9122;48.406;9.984;2023-05-14T05:37:41;12.40;99.30
17994;DHT22;9122;48.406;9.984;2023-05-14T05:40:26;12.40;99.50
17994;DHT22;9122;48.406;9.984;2023-05-14T05:43:11;12.40;99.20
17994;DHT22;9122;48.406;9.984;2023-05-14T05:45:57;12.50;99.10
17994;DHT22;9122;48.406;9.984;2023-05-14T05:48:41;12.50;99.10
17994;DHT22;9122;48.406;9.984;2023-05-14T05:51:26;12.50;99.00
17994;DHT22;9122;48.406;9.984;2023-05-14T05:54:10;12.50;99.00
17994;DHT22;9122;48.406;9.984;2023-05-14T05:56:54;12.50;99.00
17994;DHT22;9122;48.406;9.984;2023-05-14T05:59:38;12.50;99.00
17994;DHT22;9122;48.406;9.984;2023-05-14T06:02:23;12.50;99.00
17994;DHT22;9122;48.406;9.984;2023-05-14T06:05:08;12.50;99.00
17994;DHT22;9122;48.406;9.984;2023-05-14T06:07:53;12.50;98.90
17994;DHT22;9122;48.406;9.984;2023-05-14T06:10:38;12.50;98.90
17994;DHT22;9122;48.406;9.984;2023-05-14T06:13:22;12.50;98.90
17994;DHT22;9122;48.406;9.984;2023-05-14T06:16:07;12.50;99.00
17994;DHT22;9122;48.406;9.984;2023-05-14T06:18:56;12.50;98.90
17994;DHT22;9122;48.406;9.984;2023-05-14T06:21:40;12.50;98.90
17994;DHT22;9122;48.406;9.984;2023-05-14T06:24:24;12.50;98.80
17994;DHT22;9122;48.406;9.984;2023-05-14T06:27:09;12.50;98.70
17994;DHT22;9122;48.406;9.984;2023-05-14T06:29:54;12.50;98.70
17994;DHT22;9122;48.406;9.984;2023-05-14T06:32:39;12.40;98.80
17994;DHT22;9122;48.406;9.984;2023-05-14T06:35:24;12.50;98.80
17994;DHT22;9122;48.406;9.984;2023-05-14T06:38:08;12.50;98.70
17994;DHT22;9122;48.406;9.984;2023-05-14T06:40:53;12.50;98.70
17994;DHT22;9122;48.406;9.984;2023-05-14T06:43:47;12.50;98.70
17994;DHT22;9122;48.406;9.984;2023-05-14T06:46:31;12.50;98.70
17994;DHT22;9122;48.406;9.984;2023-05-14T06:49:16;12.50;98.60
17994;DHT22;9122;48.406;9.984;2023-05-14T06:52:01;12.50;98.40
17994;DHT22;9122;48.406;9.984;2023-05-14T06:54:45;12.50;98.30
17994;DHT22;9122;48.406;9.984;2023-05-14T06:57:29;12.50;98.30
17994;DHT22;9122;48.406;9.984;2023-05-14T07:00:14;12.60;98.30
17994;DHT22;9122;48.406;9.984;2023-05-14T07:02:59;12.60;98.20
17994;DHT22;9122;48.406;9.984;2023-05-14T07:05:44;12.60;98.20
17994;DHT22;9122;48.406;9.984;2023-05-14T07:08:29;12.60;98.00
17994;DHT22;9122;48.406;9.984;2023-05-14T07:11:14;12.60;98.00
17994;DHT22;9122;48.406;9.984;2023-05-14T07:13:59;12.70;98.00
17994;DHT22;9122;48.406;9.984;2023-05-14T07:16:44;12.70;97.90
17994;DHT22;9122;48.406;9.984;2023-05-14T07:19:31;12.70;97.80
17994;DHT22;9122;48.406;9.984;2023-05-14T07:22:15;12.70;97.60
17994;DHT22;9122;48.406;9.984;2023-05-14T07:25:00;12.70;97.50
17994;DHT22;9122;48.406;9.984;2023-05-14T07:27:44;12.80;97.50
17994;DHT22;9122;48.406;9.984;2023-05-14T07:30:28;12.80;97.50
17994;DHT22;9122;48.406;9.984;2023-05-14T07:33:12;12.80;97.30
17994;DHT22;9122;48.406;9.984;2023-05-14T07:35:57;12.80;97.30
17994;DHT22;9122;48.406;9.984;2023-05-14T07:38:41;12.80;97.30
17994;DHT22;9122;48.406;9.984;2023-05-14T07:41:26;12.80;97.30
17994;DHT22;9122;48.406;9.984;2023-05-14T07:44:10;12.80;97.10
17994;DHT22;9122;48.406;9.984;2023-05-14T07:46:55;12.80;97.10
17994;DHT22;9122;48.406;9.984;2023-05-14T07:49:40;12.80;97.00
17994;DHT22;9122;48.406;9.984;2023-05-14T07:52:24;12.80;97.00
17994;DHT22;9122;48.406;9.984;2023-05-14T07:55:10;12.80;97.00
17994;DHT22;9122;48.406;9.984;2023-05-14T07:57:55;12.80;97.10
17994;DHT22;9122;48.406;9.984;2023-05-14T08:00:40;12.80;97.00
17994;DHT22;9122;48.406;9.984;2023-05-14T08:03:24;12.90;96.90
17994;DHT22;9122;48.406;9.984;2023-05-14T08:06:09;12.80;96.90
17994;DHT22;9122;48.406;9.984;2023-05-14T08:08:54;12.90;96.70
17994;DHT22;9122;48.406;9.984;2023-05-14T08:11:38;12.90;96.80
17994;DHT22;9122;48.406;9.984;2023-05-14T08:14:23;12.90;96.70
17994;DHT22;9122;48.406;9.984;2023-05-14T08:17:08;12.90;96.60
17994;DHT22;9122;48.406;9.984;2023-05-14T08:19:52;12.90;96.40
17994;DHT22;9122;48.406;9.984;2023-05-14T08:22:37;12.90;96.40
17994;DHT22;9122;48.406;9.984;2023-05-14T08:25:22;13.00;96.40
17994;DHT22;9122;48.406;9.984;2023-05-14T08:28:07;12.90;96.20
17994;DHT22;9122;48.406;9.984;2023-05-14T08:30:51;13.00;96.00
17994;DHT22;9122;48.406;9.984;2023-05-14T08:33:36;13.00;96.00
17994;DHT22;9122;48.406;9.984;2023-05-14T08:36:20;13.00;96.10
17994;DHT22;9122;48.406;9.984;2023-05-14T08:39:05;13.00;96.00
17994;DHT22;9122;48.406;9.984;2023-05-14T08:41:52;13.00;96.00
17994;DHT22;9122;48.406;9.984;2023-05-14T08:47:30;13.10;96.30
17994;DHT22;9122;48.406;9.984;2023-05-14T08:50:15;13.00;96.30
17994;DHT22;9122;48.406;9.984;2023-05-14T08:53:00;13.10;96.10
17994;DHT22;9122;48.406;9.984;2023-05-14T08:55:45;13.10;96.00
17994;DHT22;9122;48.406;9.984;2023-05-14T08:58:31;13.10;96.00
17994;DHT22;9122;48.406;9.984;2023-05-14T09:01:16;13.00;95.60
17994;DHT22;9122;48.406;9.984;2023-05-14T09:04:02;13.00;95.60
17994;DHT22;9122;48.406;9.984;2023-05-14T09:06:52;13.00;95.70
17994;DHT22;9122;48.406;9.984;2023-05-14T09:09:37;13.00;95.80
17994;DHT22;9122;48.406;9.984;2023-05-14T09:12:21;13.00;95.70
17994;DHT22;9122;48.406;9.984;2023-05-14T09:15:06;13.00;95.80
17994;DHT22;9122;48.406;9.984;2023-05-14T09:17:51;13.00;95.90
17994;DHT22;9122;48.406;9.984;2023-05-14T09:20:37;13.00;95.90
17994;DHT22;9122;48.406;9.984;2023-05-14T09:23:25;13.00;95.90
17994;DHT22;9122;48.406;9.984;2023-05-14T09:26:10;13.00;96.00
17994;DHT22;9122;48.406;9.984;2023-05-14T09:28:57;13.10;96.20
17994;DHT22;9122;48.406;9.984;2023-05-14T09:31:44;13.10;96.00
17994;DHT22;9122;48.406;9.984;2023-05-14T09:34:31;13.10;95.80
17994;DHT22;9122;48.406;9.984;2023-05-14T09:37:15;13.20;95.70
17994;DHT22;9122;48.406;9.984;2023-05-14T09:40:05;13.20;95.60
17994;DHT22;9122;48.406;9.984;2023-05-14T09:42:50;13.30;95.60
17994;DHT22;9122;48.406;9.984;2023-05-14T09:45:35;13.30;95.60
17994;DHT22;9122;48.406;9.984;2023-05-14T09:48:20;13.40;95.60
17994;DHT22;9122;48.406;9.984;2023-05-14T09:51:05;13.40;95.70
17994;DHT22;9122;48.406;9.984;2023-05-14T09:53:51;13.40;95.80
17994;DHT22;9122;48.406;9.984;2023-05-14T09:56:36;13.40;95.80
17994;DHT22;9122;48.406;9.984;2023-05-14T09:59:22;13.50;95.70
17994;DHT22;9122;48.406;9.984;2023-05-14T10:02:19;13.50;95.60
17994;DHT22;9122;48.406;9.984;2023-05-14T10:05:08;13.50;95.60
17994;DHT22;9122;48.406;9.984;2023-05-14T10:07:56;13.50;95.60
17994;DHT22;9122;48.406;9.984;2023-05-14T10:10:42;13.60;95.70
17994;DHT22;9122;48.406;9.984;2023-05-14T10:13:30;13.60;95.60
17994;DHT22;9122;48.406;9.984;2023-05-14T10:16:24;13.60;95.70
17994;DHT22;9122;48.406;9.984;2023-05-14T10:19:11;13.60;95.60
17994;DHT22;9122;48.406;9.984;2023-05-14T10:22:06;13.60;95.60
17994;DHT22;9122;48.406;9.984;2023-05-14T10:24:54;13.60;95.70
17994;DHT22;9122;48.406;9.984;2023-05-14T10:27:40;13.70;95.70
17994;DHT22;9122;48.406;9.984;2023-05-14T10:30:25;13.80;95.60
17994;DHT22;9122;48.406;9.984;2023-05-14T10:33:14;13.80;95.60
17994;DHT22;9122;48.406;9.984;2023-05-14T10:36:03;13.80;95.50
17994;DHT22;9122;48.406;9.984;2023-05-14T10:38:54;13.90;95.40
17994;DHT22;9122;48.406;9.984;2023-05-14T10:41:42;13.90;95.40
17994;DHT22;9122;48.406;9.984;2023-05-14T10:44:27;14.00;95.50
17994;DHT22;9122;48.406;9.984;2023-05-14T10:47:13;14.00;95.40
17994;DHT22;9122;48.406;9.984;2023-05-14T10:50:04;14.10;95.30
17994;DHT22;9122;48.406;9.984;2023-05-14T10:52:50;14.20;95.20
17994;DHT22;9122;48.406;9.984;2023-05-14T10:55:34;14.30;95.00
17994;DHT22;9122;48.406;9.984;2023-05-14T10:58:20;14.40;94.80
17994;DHT22;9122;48.406;9.984;2023-05-14T11:01:06;14.50;94.70
17994;DHT22;9122;48.406;9.984;2023-05-14T11:03:52;14.50;94.50
17994;DHT22;9122;48.406;9.984;2023-05-14T11:06:37;14.60;94.30
17994;DHT22;9122;48.406;9.984;2023-05-14T11:09:23;14.60;94.00
17994;DHT22;9122;48.406;9.984;2023-05-14T11:12:08;14.60;93.90
17994;DHT22;9122;48.406;9.984;2023-05-14T11:14:56;14.60;93.80
17994;DHT22;9122;48.406;9.984;2023-05-14T11:17:42;14.70;93.70
17994;DHT22;9122;48.406;9.984;2023-05-14T11:20:26;14.70;93.70
17994;DHT22;9122;48.406;9.984;2023-05-14T11:23:11;14.70;93.80
17994;DHT22;9122;48.406;9.984;2023-05-14T11:25:55;14.70;93.80
17994;DHT22;9122;48.406;9.984;2023-05-14T11:28:40;14.70;93.70
17994;DHT22;9122;48.406;9.984;2023-05-14T11:31:24;14.70;93.60
17994;DHT22;9122;48.406;9.984;2023-05-14T11:34:09;14.70;93.60
17994;DHT22;9122;48.406;9.984;2023-05-14T11:36:53;14.80;93.60
17994;DHT22;9122;48.406;9.984;2023-05-14T11:39:38;14.80;93.60
17994;DHT22;9122;48.406;9.984;2023-05-14T11:42:23;14.90;93.50
17994;DHT22;9122;48.406;9.984;2023-05-14T11:45:12;14.90;93.30
17994;DHT22;9122;48.406;9.984;2023-05-14T11:47:57;15.00;93.10
17994;DHT22;9122;48.406;9.984;2023-05-14T11:50:45;15.00;93.20
17994;DHT22;9122;48.406;9.984;2023-05-14T11:53:30;15.10;93.30
17994;DHT22;9122;48.406;9.984;2023-05-14T11:56:14;15.20;93.30
17994;DHT22;9122;48.406;9.984;2023-05-14T11:58:59;15.20;93.10
17994;DHT22;9122;48.406;9.984;2023-05-14T12:01:44;15.20;93.10
17994;DHT22;9122;48.406;9.984;2023-05-14T12:04:30;15.30;93.20
17994;DHT22;9122;48.406;9.984;2023-05-14T12:07:15;15.40;93.10
17994;DHT22;9122;48.406;9.984;2023-05-14T12:10:01;15.40;93.00
17994;DHT22;9122;48.406;9.984;2023-05-14T12:12:47;15.50;93.10
17994;DHT22;9122;48.406;9.984;2023-05-14T12:15:32;15.50;92.80
17994;DHT22;9122;48.406;9.984;2023-05-14T12:18:16;15.60;92.70
17994;DHT22;9122;48.406;9.984;2023-05-14T12:21:02;15.60;92.70
17994;DHT22;9122;48.406;9.984;2023-05-14T12:23:47;15.60;92.50
17994;DHT22;9122;48.406;9.984;2023-05-14T12:26:43;15.60;92.40
17994;DHT22;9122;48.406;9.984;2023-05-14T12:29:28;15.60;92.30
17994;DHT22;9122;48.406;9.984;2023-05-14T12:32:13;15.60;92.30
17994;DHT22;9122;48.406;9.984;2023-05-14T12:34:58;15.70;92.30
17994;DHT22;9122;48.406;9.984;2023-05-14T12:37:44;15.70;92.40
17994;DHT22;9122;48.406;9.984;2023-05-14T12:40:28;15.70;92.40
17994;DHT22;9122;48.406;9.984;2023-05-14T12:43:15;15.70;92.40
17994;DHT22;9122;48.406;9.984;2023-05-14T12:46:00;15.70;92.90
17994;DHT22;9122;48.406;9.984;2023-05-14T12:48:44;15.80;93.80
17994;DHT22;9122;48.406;9.984;2023-05-14T12:51:29;15.80;94.60
17994;DHT22;9122;48.406;9.984;2023-05-14T12:54:14;15.80;95.00
17994;DHT22;9122;48.406;9.984;2023-05-14T12:56:58;15.80;95.00
17994;DHT22;9122;48.406;9.984;2023-05-14T12:59:43;15.80;94.90
17994;DHT22;9122;48.406;9.984;2023-05-14T13:02:27;15.80;95.10
17994;DHT22;9122;48.406;9.984;2023-05-14T13:05:12;15.80;95.00
17994;DHT22;9122;48.406;9.984;2023-05-14T13:07:58;15.80;95.00
17994;DHT22;9122;48.406;9.984;2023-05-14T13:10:43;15.80;94.80
17994;DHT22;9122;48.406;9.984;2023-05-14T13:13:28;15.80;94.50
17994;DHT22;9122;48.406;9.984;2023-05-14T13:16:12;15.80;94.50
17994;DHT22;9122;48.406;9.984;2023-05-14T13:19:01;15.90;94.20
17994;DHT22;9122;48.406;9.984;2023-05-14T13:21:45;15.90;94.20
17994;DHT22;9122;48.406;9.984;2023-05-14T13:24:30;16.00;94.00
17994;DHT22;9122;48.406;9.984;2023-05-14T13:27:14;16.00;93.80
17994;DHT22;9122;48.406;9.984;2023-05-14T13:29:58;16.00;93.30
17994;DHT22;9122;48.406;9.984;2023-05-14T13:32:43;16.00;92.90
17994;DHT22;9122;48.406;9.984;2023-05-14T13:35:27;16.00;92.70
17994;DHT22;9122;48.406;9.984;2023-05-14T13:38:12;15.90;92.90
17994;DHT22;9122;48.406;9.984;2023-05-14T13:40:56;15.90;93.30
17994;DHT22;9122;48.406;9.984;2023-05-14T13:43:44;15.90;93.80
17994;DHT22;9122;48.406;9.984;2023-05-14T13:46:29;15.90;94.30
17994;DHT22;9122;48.406;9.984;2023-05-14T13:49:14;15.90;94.40
17994;DHT22;9122;48.406;9.984;2023-05-14T13:51:58;15.90;94.50
17994;DHT22;9122;48.406;9.984;2023-05-14T13:54:43;15.90;94.50
17994;DHT22;9122;48.406;9.984;2023-05-14T13:57:27;15.90;94.50
17994;DHT22;9122;48.406;9.984;2023-05-14T14:00:12;15.90;94.60
17994;DHT22;9122;48.406;9.984;2023-05-14T14:02:57;15.90;94.70
17994;DHT22;9122;48.406;9.984;2023-05-14T14:05:42;15.90;95.00
17994;DHT22;9122;48.406;9.984;2023-05-14T14:08:26;15.90;95.40
17994;DHT22;9122;48.406;9.984;2023-05-14T14:11:10;15.90;95.40
17994;DHT22;9122;48.406;9.984;2023-05-14T14:13:56;15.90;94.50
17994;DHT22;9122;48.406;9.984;2023-05-14T14:16:40;15.90;94.20
17994;DHT22;9122;48.406;9.984;2023-05-14T14:19:24;15.80;94.10
17994;DHT22;9122;48.406;9.984;2023-05-14T14:22:09;15.80;94.30
17994;DHT22;9122;48.406;9.984;2023-05-14T14:24:55;15.70;94.30
17994;DHT22;9122;48.406;9.984;2023-05-14T14:27:39;15.70;94.40
17994;DHT22;9122;48.406;9.984;2023-05-14T14:30:24;15.70;94.70
17994;DHT22;9122;48.406;9.984;2023-05-14T14:33:08;15.70;95.10
17994;DHT22;9122;48.406;9.984;2023-05-14T14:35:53;15.70;95.60
17994;DHT22;9122;48.406;9.984;2023-05-14T14:38:37;15.70;95.90
17994;DHT22;9122;48.406;9.984;2023-05-14T14:41:22;15.70;96.20
17994;DHT22;9122;48.406;9.984;2023-05-14T14:44:07;15.70;96.20
17994;DHT22;9122;48.406;9.984;2023-05-14T14:46:51;15.70;96.00
17994;DHT22;9122;48.406;9.984;2023-05-14T14:49:36;15.60;96.00
17994;DHT22;9122;48.406;9.984;2023-05-14T14:52:20;15.60;95.90
17994;DHT22;9122;48.406;9.984;2023-05-14T14:55:05;15.60;95.90
17994;DHT22;9122;48.406;9.984;2023-05-14T14:57:50;15.50;95.80
17994;DHT22;9122;48.406;9.984;2023-05-14T15:00:34;15.50;95.80
17994;DHT22;9122;48.406;9.984;2023-05-14T15:03:19;15.50;95.80
17994;DHT22;9122;48.406;9.984;2023-05-14T15:06:04;15.50;96.00
17994;DHT22;9122;48.406;9.984;2023-05-14T15:08:48;15.40;96.20
17994;DHT22;9122;48.406;9.984;2023-05-14T15:11:33;15.40;96.60
17994;DHT22;9122;48.406;9.984;2023-05-14T15:14:17;15.40;96.80
17994;DHT22;9122;48.406;9.984;2023-05-14T15:17:01;15.40;96.80
17994;DHT22;9122;48.406;9.984;2023-05-14T15:19:46;15.30;96.80
17994;DHT22;9122;48.406;9.984;2023-05-14T15:22:31;15.30;96.90
17994;DHT22;9122;48.406;9.984;2023-05-14T15:25:15;15.30;97.00
17994;DHT22;9122;48.406;9.984;2023-05-14T15:28:00;15.40;97.20
17994;DHT22;9122;48.406;9.984;2023-05-14T15:30:46;15.30;97.40
17994;DHT22;9122;48.406;9.984;2023-05-14T15:33:30;15.30;97.70
17994;DHT22;9122;48.406;9.984;2023-05-14T15:36:17;15.30;97.80
17994;DHT22;9122;48.406;9.984;2023-05-14T15:39:01;15.30;97.90
17994;DHT22;9122;48.406;9.984;2023-05-14T15:41:45;15.30;98.00
17994;DHT22;9122;48.406;9.984;2023-05-14T15:44:30;15.30;98.00
17994;DHT22;9122;48.406;9.984;2023-05-14T15:47:14;15.30;98.00
17994;DHT22;9122;48.406;9.984;2023-05-14T15:49:59;15.30;97.90
17994;DHT22;9122;48.406;9.984;2023-05-14T15:52:44;15.30;97.80
17994;DHT22;9122;48.406;9.984;2023-05-14T15:55:29;15.30;97.70
17994;DHT22;9122;48.406;9.984;2023-05-14T15:58:15;15.30;97.70
17994;DHT22;9122;48.406;9.984;2023-05-14T16:00:59;15.30;97.70
17994;DHT22;9122;48.406;9.984;2023-05-14T16:03:44;15.30;97.80
17994;DHT22;9122;48.406;9.984;2023-05-14T16:06:29;15.30;97.70
17994;DHT22;9122;48.406;9.984;2023-05-14T16:09:14;15.30;97.70
17994;DHT22;9122;48.406;9.984;2023-05-14T16:11:59;15.30;97.80
17994;DHT22;9122;48.406;9.984;2023-05-14T16:14:43;15.30;97.80
17994;DHT22;9122;48.406;9.984;2023-05-14T16:17:28;15.30;97.70
17994;DHT22;9122;48.406;9.984;2023-05-14T16:20:15;15.30;97.70
17994;DHT22;9122;48.406;9.984;2023-05-14T16:23:00;15.30;97.60
17994;DHT22;9122;48.406;9.984;2023-05-14T16:25:44;15.30;97.50
17994;DHT22;9122;48.406;9.984;2023-05-14T16:28:29;15.30;97.40
17994;DHT22;9122;48.406;9.984;2023-05-14T16:31:14;15.30;97.20
17994;DHT22;9122;48.406;9.984;2023-05-14T16:33:59;15.20;97.30
17994;DHT22;9122;48.406;9.984;2023-05-14T16:36:43;15.30;97.50
17994;DHT22;9122;48.406;9.984;2023-05-14T16:39:28;15.30;97.40
17994;DHT22;9122;48.406;9.984;2023-05-14T16:42:13;15.30;97.90
17994;DHT22;9122;48.406;9.984;2023-05-14T16:44:57;15.30;97.70
17994;DHT22;9122;48.406;9.984;2023-05-14T16:47:42;15.30;97.70
17994;DHT22;9122;48.406;9.984;2023-05-14T16:50:26;15.40;97.80
17994;DHT22;9122;48.406;9.984;2023-05-14T16:53:11;15.40;97.90
17994;DHT22;9122;48.406;9.984;2023-05-14T16:55:56;15.40;97.90
17994;DHT22;9122;48.406;9.984;2023-05-14T16:58:41;15.50;97.80
17994;DHT22;9122;48.406;9.984;2023-05-14T17:01:25;15.50;97.70
17994;DHT22;9122;48.406;9.984;2023-05-14T17:04:09;15.50;97.90
17994;DHT22;9122;48.406;9.984;2023-05-14T17:06:54;15.50;98.00
17994;DHT22;9122;48.406;9.984;2023-05-14T17:09:40;15.60;98.10
17994;DHT22;9122;48.406;9.984;2023-05-14T17:12:24;15.60;98.20
17994;DHT22;9122;48.406;9.984;2023-05-14T17:15:10;15.70;98.20
17994;DHT22;9122;48.406;9.984;2023-05-14T17:17:54;15.70;98.10
17994;DHT22;9122;48.406;9.984;2023-05-14T17:20:39;15.70;98.10
17994;DHT22;9122;48.406;9.984;2023-05-14T17:23:24;15.70;98.10
17994;DHT22;9122;48.406;9.984;2023-05-14T17:26:08;15.70;98.20
17994;DHT22;9122;48.406;9.984;2023-05-14T17:28:54;15.70;97.90
17994;DHT22;9122;48.406;9.984;2023-05-14T17:31:39;15.70;97.30
17994;DHT22;9122;48.406;9.984;2023-05-14T17:34:24;15.70;97.10
17994;DHT22;9122;48.406;9.984;2023-05-14T17:37:08;15.70;97.20
17994;DHT22;9122;48.406;9.984;2023-05-14T17:39:53;15.60;97.00
17994;DHT22;9122;48.406;9.984;2023-05-14T17:42:37;15.60;96.80
17994;DHT22;9122;48.406;9.984;2023-05-14T17:45:21;15.50;96.90
17994;DHT22;9122;48.406;9.984;2023-05-14T17:48:06;15.50;96.70
17994;DHT22;9122;48.406;9.984;2023-05-14T17:50:51;15.50;96.50
17994;DHT22;9122;48.406;9.984;2023-05-14T17:53:35;15.50;96.50